Startpagina
METAR-TAF:

METAR-TAF

Vliegvelden :

Ranchi, India

breedte: 23-18-51N, lengte: 85-19-18E, hoogte: 646 m

Actueel weer

Dit bericht is 36 minuten geleden gemaakt, om 07:30 UTC
Wind 4 kt uit het zuidzuidwesten
Temperatuur 24°C
Vochtigheid 54%
Druk 1017 hPa
Zicht: 6000 m
Weinig wolken op 10000 ft

METAR: VERC 160730Z 20004KT 6000 FEW100 24/14 Q1017 NOSIG

Tijdstip: 13:36 (08:06 UTC)

Verwachting

Dit bericht is 3 uur en het 6 minuten geleden gemaakt, om 05:00 UTC
Verwachting geldig van 16 om 06 UTC tot 16 om 15 UTC
Wind 5 kt uit het zuidzuidwesten
Zicht: 6000 m
Wijzigt naar
van 16 om 13 UTC tot 16 om 15 UTC
Wind kt uit het noorden
Zicht: 4000 m
Weinig wolken op 10000 ft
Heiigheid

TAF: VERC 160500Z 1606/1615 21005KT 6000 NSC BECMG 1613/1615 00000KT 4000 HZ FEW100

Waarnemingen en weersverwachtingen van meer dan 4000 vliegvelden (METAR en TAF).

De beschikbare stations zijn de gele en rode punten op de kaart.

Ga met uw muis naar het station om de naam te zien.

Klik dan om waarnemingen en weersverwachtingen te zien.

kaart wijzigen: klik op de groene knoppen met een zwart kruis om in te zoomen, op de groene knop met een streepje om uit te zoomen of op de groene pijlen voor aangrenzende kaarten.


METAR-TAF: